createdAt,value
2018-07-19T00:16:32.948Z,100069.62
2018-07-19T00:19:03.394Z,100065.80
2018-07-19T00:21:33.466Z,100069.50
2018-07-19T00:24:03.361Z,100076.89
2018-07-19T00:26:33.910Z,100065.02
2018-07-19T00:29:04.009Z,100070.19
2018-07-19T00:31:34.252Z,100081.81
2018-07-19T00:34:04.623Z,100073.41
2018-07-19T00:36:34.938Z,100078.72
2018-07-19T00:39:06.703Z,100076.17
2018-07-19T00:41:37.055Z,100075.68
2018-07-19T00:44:08.761Z,100056.22
2018-07-19T00:46:39.705Z,100075.50
2018-07-19T00:49:10.284Z,100074.41
2018-07-19T00:51:40.775Z,100070.17
2018-07-19T00:54:11.113Z,100068.56
2018-07-19T00:56:41.649Z,100072.17
2018-07-19T00:59:12.043Z,100065.64
2018-07-19T01:01:42.435Z,100073.90
2018-07-19T01:04:12.536Z,100071.17
2018-07-19T01:06:42.703Z,100076.95
2018-07-19T01:09:13.419Z,100073.73
2018-07-19T01:11:43.702Z,100074.28
2018-07-19T01:14:14.326Z,100072.55
2018-07-19T01:16:45.907Z,100075.89
2018-07-19T01:19:16.196Z,100075.89
2018-07-19T01:21:46.831Z,100073.95
2018-07-19T01:24:17.374Z,100068.97
2018-07-19T01:26:47.670Z,100069.39
2018-07-19T01:29:17.562Z,100068.84
2018-07-19T01:31:48.020Z,100072.34
2018-07-19T01:34:18.574Z,100071.19
2018-07-19T01:36:48.930Z,100068.45
2018-07-19T01:39:18.933Z,100068.45
2018-07-19T01:42:27.456Z,100070.52
2018-07-19T01:44:58.507Z,100063.14
2018-07-19T01:47:28.733Z,100066.51
2018-07-19T01:49:59.355Z,100069.45
2018-07-19T01:52:29.991Z,100075.28
2018-07-19T01:55:00.852Z,100077.29
2018-07-19T01:57:31.531Z,100075.17
2018-07-19T02:00:01.800Z,100075.02
2018-07-19T02:02:32.206Z,100077.29
2018-07-19T02:05:02.769Z,100079.59
2018-07-19T02:07:33.581Z,100081.92
2018-07-19T02:10:03.757Z,100081.26
2018-07-19T02:12:34.310Z,100085.36
2018-07-19T02:15:04.714Z,100083.86
2018-07-19T02:17:34.985Z,100087.56
2018-07-19T02:20:05.495Z,100083.08
2018-07-19T02:22:35.659Z,100080.09
2018-07-19T02:25:06.023Z,100087.55
2018-07-19T02:27:36.616Z,100091.16
2018-07-19T02:30:06.542Z,100094.37
2018-07-19T02:32:37.267Z,100082.04
2018-07-19T02:35:07.881Z,100080.19
2018-07-19T02:37:38.245Z,100077.54
2018-07-19T02:40:08.430Z,100075.81
2018-07-19T02:42:39.247Z,100074.74
2018-07-19T02:45:10.008Z,100077.13
2018-07-19T02:47:40.475Z,100079.30
2018-07-19T02:50:10.626Z,100076.67
2018-07-19T02:52:41.266Z,100089.32
2018-07-19T02:55:12.003Z,100083.89
2018-07-19T02:57:42.384Z,100074.99
2018-07-19T03:00:12.809Z,100078.22
2018-07-19T03:02:43.410Z,100079.23
2018-07-19T03:05:13.540Z,100078.91
2018-07-19T03:07:43.674Z,100077.29
2018-07-19T03:10:14.139Z,100079.23
2018-07-19T03:12:44.209Z,100084.72
2018-07-19T03:15:15.010Z,100083.44
2018-07-19T03:17:45.495Z,100076.41
2018-07-19T03:20:15.820Z,100080.64
2018-07-19T03:22:45.963Z,100077.02
2018-07-19T03:25:16.330Z,100072.70
2018-07-19T03:27:52.523Z,100070.45
2018-07-19T03:30:22.522Z,100075.22
2018-07-19T03:32:53.916Z,100071.01
2018-07-19T03:35:24.281Z,100078.11
2018-07-19T03:37:55.123Z,100071.67
2018-07-19T03:40:25.184Z,100076.88
2018-07-19T03:42:55.318Z,100080.59
2018-07-19T03:45:25.619Z,100080.84
2018-07-19T03:47:55.926Z,100088.50
2018-07-19T03:50:26.360Z,100086.16
2018-07-19T03:52:56.419Z,100084.89
2018-07-19T03:55:27.191Z,100085.10
2018-07-19T03:57:57.369Z,100074.49
2018-07-19T04:00:27.574Z,100087.16
2018-07-19T04:02:58.006Z,100082.53
2018-07-19T04:05:28.578Z,100078.78
2018-07-19T04:07:58.798Z,100078.41
2018-07-19T04:10:29.209Z,100081.33
2018-07-19T04:12:59.466Z,100080.38
2018-07-19T04:15:30.098Z,100073.23
2018-07-19T04:18:00.625Z,100072.21
2018-07-19T04:20:31.827Z,100075.16
2018-07-19T04:23:02.171Z,100070.09
2018-07-19T04:25:32.648Z,100071.50
2018-07-19T04:28:02.517Z,100072.16
2018-07-19T04:30:33.062Z,100080.22
2018-07-19T04:33:03.517Z,100072.11
2018-07-19T04:35:33.709Z,100080.70
2018-07-19T04:38:03.946Z,100081.63
2018-07-19T04:40:34.392Z,100080.16
2018-07-19T04:43:05.498Z,100072.61
2018-07-19T04:45:35.778Z,100083.58
2018-07-19T04:48:06.452Z,100078.61
2018-07-19T04:50:36.657Z,100081.91
2018-07-19T04:53:07.263Z,100075.42
2018-07-19T04:55:37.218Z,100069.83
2018-07-19T04:58:07.309Z,100071.70
2018-07-19T05:00:38.118Z,100075.48
2018-07-19T05:03:08.079Z,100073.16
2018-07-19T05:05:38.546Z,100068.59
2018-07-19T05:08:09.307Z,100072.92
2018-07-19T05:10:39.866Z,100068.00
2018-07-19T05:13:10.925Z,100068.98
2018-07-19T05:15:41.992Z,100071.18
2018-07-19T05:18:12.369Z,100067.66
2018-07-19T05:20:42.653Z,100063.34
2018-07-19T05:23:12.953Z,100069.91
2018-07-19T05:25:43.406Z,100074.25
2018-07-19T05:28:13.329Z,100073.55
2018-07-19T05:30:43.589Z,100071.89
2018-07-19T05:33:13.539Z,100071.25
2018-07-19T05:35:43.560Z,100068.58
2018-07-19T05:38:13.632Z,100060.52
2018-07-19T05:40:43.936Z,100067.49
2018-07-19T05:43:14.213Z,100057.87
2018-07-19T05:45:44.352Z,100065.86
2018-07-19T05:48:14.235Z,100062.02
2018-07-19T05:50:44.355Z,100061.41
2018-07-19T05:53:14.483Z,100067.50
2018-07-19T05:55:45.110Z,100070.05
2018-07-19T05:58:15.119Z,100068.85
2018-07-19T06:00:45.472Z,100074.47
2018-07-19T06:03:15.524Z,100074.78
2018-07-19T06:05:45.895Z,100069.55
2018-07-19T06:08:16.612Z,100069.88
2018-07-19T06:10:46.732Z,100058.06
2018-07-19T06:13:16.791Z,100074.25
2018-07-19T06:15:46.799Z,100070.02
2018-07-19T06:18:16.800Z,100066.42
2018-07-19T06:20:46.995Z,100076.55
2018-07-19T06:23:16.851Z,100066.58
2018-07-19T06:25:46.832Z,100064.94
2018-07-19T06:28:16.965Z,100065.98
2018-07-19T06:30:46.665Z,100070.64
2018-07-19T06:33:16.596Z,100067.64
2018-07-19T06:35:46.936Z,100068.22
2018-07-19T06:38:17.445Z,100066.90
2018-07-19T06:40:47.840Z,100071.23
2018-07-19T06:43:17.988Z,100061.80
2018-07-19T06:45:47.871Z,100072.98
2018-07-19T06:48:18.176Z,100058.58
2018-07-19T06:50:48.074Z,100060.83
2018-07-19T06:53:18.097Z,100054.59
2018-07-19T06:55:48.321Z,100055.22
2018-07-19T06:58:18.147Z,100059.61
2018-07-19T07:00:48.356Z,100056.21
2018-07-19T07:03:18.757Z,100061.50
2018-07-19T07:05:49.164Z,100054.02
2018-07-19T07:08:19.264Z,100059.08
2018-07-19T07:10:49.361Z,100054.66
2018-07-19T07:13:19.713Z,100047.26
2018-07-19T07:15:49.839Z,100058.78
2018-07-19T07:18:19.965Z,100057.09
2018-07-19T07:20:49.953Z,100056.83
2018-07-19T07:23:19.859Z,100046.85
2018-07-19T07:25:52.926Z,100057.61
2018-07-19T07:28:24.459Z,100058.33
2018-07-19T07:30:54.672Z,100057.33
2018-07-19T07:33:24.873Z,100053.89
2018-07-19T07:35:54.913Z,100052.60
2018-07-19T07:38:25.415Z,100057.89
2018-07-19T07:40:55.655Z,100064.44
2018-07-19T07:43:26.284Z,100063.75
2018-07-19T07:45:56.193Z,100069.06
2018-07-19T07:48:27.233Z,100077.39
2018-07-19T07:50:57.439Z,100069.68
2018-07-19T07:53:27.829Z,100076.00
2018-07-19T07:55:58.088Z,100079.91
2018-07-19T07:58:28.219Z,100083.39
2018-07-19T08:00:59.411Z,100087.97
2018-07-19T08:03:29.400Z,100088.00
2018-07-19T08:05:59.380Z,100090.95
2018-07-19T08:08:29.609Z,100084.82
2018-07-19T08:10:59.981Z,100083.38
2018-07-19T08:13:30.486Z,100097.66
2018-07-19T08:16:00.761Z,100081.63
2018-07-19T08:18:30.901Z,100084.17
2018-07-19T08:21:01.173Z,100085.13
2018-07-19T08:23:31.701Z,100083.20
2018-07-19T08:26:01.701Z,100091.48
2018-07-19T08:28:31.749Z,100091.45
2018-07-19T08:31:01.511Z,100100.37
2018-07-19T08:33:32.046Z,100086.06
2018-07-19T08:36:02.194Z,100086.73
2018-07-19T08:38:32.841Z,100105.52
2018-07-19T08:41:02.676Z,100102.83
2018-07-19T08:43:33.135Z,100090.98
2018-07-19T08:46:03.443Z,100096.31
2018-07-19T08:48:33.496Z,100099.20
2018-07-19T08:51:03.461Z,100096.26
2018-07-19T08:53:33.695Z,100092.79
2018-07-19T08:56:03.581Z,100088.83
2018-07-19T08:58:34.048Z,100090.81
2018-07-19T09:01:04.331Z,100103.33
2018-07-19T09:03:34.605Z,100096.55
2018-07-19T09:06:04.612Z,100092.50
2018-07-19T09:08:34.776Z,100093.55
2018-07-19T09:11:04.705Z,100093.19
2018-07-19T09:13:34.737Z,100084.38
2018-07-19T09:16:04.914Z,100087.80
2018-07-19T09:18:34.946Z,100095.24
2018-07-19T09:21:04.928Z,100088.22
2018-07-19T09:23:34.863Z,100087.19
2018-07-19T09:26:04.808Z,100092.73
2018-07-19T09:28:34.643Z,100088.09
2018-07-19T09:31:04.433Z,100095.39
2018-07-19T09:33:34.513Z,100093.06
2018-07-19T09:36:04.684Z,100095.98
2018-07-19T09:38:34.879Z,100091.23
2018-07-19T09:41:05.123Z,100098.66
2018-07-19T09:43:35.793Z,100097.08
2018-07-19T09:46:06.236Z,100094.18
2018-07-19T09:48:36.228Z,100104.78
2018-07-19T09:51:06.333Z,100097.59
2018-07-19T09:53:36.415Z,100097.38
2018-07-19T09:56:06.540Z,100100.03
2018-07-19T09:58:37.060Z,100088.84
2018-07-19T10:01:13.272Z,100086.20
2018-07-19T10:03:44.081Z,100087.52
2018-07-19T10:06:14.463Z,100084.68
2018-07-19T10:08:44.920Z,100081.45
2018-07-19T10:11:15.039Z,100085.50
2018-07-19T10:13:45.549Z,100071.80
2018-07-19T10:16:15.640Z,100079.94
2018-07-19T10:18:45.980Z,100081.55
2018-07-19T10:21:16.321Z,100078.63
2018-07-19T10:23:46.588Z,100078.45
2018-07-19T10:26:16.652Z,100081.80
2018-07-19T10:28:46.589Z,100082.92
2018-07-19T10:31:16.937Z,100086.56
2018-07-19T10:33:47.056Z,100090.87
2018-07-19T10:36:16.904Z,100077.93
2018-07-19T10:38:47.044Z,100084.70
2018-07-19T10:41:17.537Z,100083.05
2018-07-19T10:43:47.801Z,100091.17
2018-07-19T10:46:18.337Z,100089.38
2018-07-19T10:48:48.412Z,100088.67
2018-07-19T10:51:18.323Z,100096.09
2018-07-19T10:53:48.392Z,100097.20
2018-07-19T10:56:18.351Z,100107.95
2018-07-19T10:58:48.745Z,100100.66
2018-07-19T11:01:19.585Z,100104.70
2018-07-19T11:03:49.709Z,100107.35
2018-07-19T11:06:19.661Z,100101.28
2018-07-19T11:08:50.161Z,100099.67
2018-07-19T11:11:20.077Z,100103.33
2018-07-19T11:13:50.563Z,100096.70
2018-07-19T11:16:20.519Z,100103.62
2018-07-19T11:18:50.677Z,100119.20
2018-07-19T11:21:20.908Z,100109.14
2018-07-19T11:23:51.017Z,100104.02
2018-07-19T11:26:21.026Z,100104.41
2018-07-19T11:28:51.056Z,100101.22
2018-07-19T11:31:20.910Z,100105.52
2018-07-19T11:33:51.494Z,100109.75
2018-07-19T11:36:21.554Z,100100.02
2018-07-19T11:38:52.153Z,100108.29
2018-07-19T11:41:22.402Z,100105.55
2018-07-19T11:43:52.646Z,100128.97
2018-07-19T11:46:22.644Z,100124.59
2018-07-19T11:48:52.797Z,100124.20
2018-07-19T11:51:22.673Z,100120.86
2018-07-19T11:53:52.732Z,100120.23
2018-07-19T11:56:22.670Z,100112.93
2018-07-19T11:58:52.841Z,100105.75
2018-07-19T12:01:22.958Z,100107.44
2018-07-19T12:03:53.517Z,100112.94
2018-07-19T12:06:23.411Z,100105.94
2018-07-19T12:08:53.463Z,100109.16
2018-07-19T12:11:23.821Z,100114.91
2018-07-19T12:13:53.724Z,100113.12
2018-07-19T12:16:23.981Z,100121.31
2018-07-19T12:18:53.935Z,100122.22
2018-07-19T12:21:23.847Z,100133.11
2018-07-19T12:23:54.337Z,100132.16
2018-07-19T12:26:24.595Z,100140.57
2018-07-19T12:28:54.428Z,100148.80
2018-07-19T12:31:24.210Z,100146.06
2018-07-19T12:33:54.275Z,100146.03
2018-07-19T12:36:24.215Z,100147.05
2018-07-19T12:38:54.425Z,100139.75
2018-07-19T12:41:24.654Z,100143.25
2018-07-19T12:43:54.710Z,100147.78
2018-07-19T12:46:24.717Z,100146.33
2018-07-19T12:48:54.641Z,100154.95
2018-07-19T12:51:24.805Z,100163.17
2018-07-19T12:55:06.374Z,100151.13
2018-07-19T12:57:36.335Z,100157.08
2018-07-19T13:00:06.876Z,100159.79
2018-07-19T13:02:36.949Z,100153.67
2018-07-19T13:05:06.876Z,100147.70
2018-07-19T13:07:36.941Z,100138.47
2018-07-19T13:10:06.904Z,100137.08
2018-07-19T13:12:37.018Z,100136.84
2018-07-19T13:15:07.685Z,100140.48
2018-07-19T13:17:37.753Z,100136.63
2018-07-19T13:20:07.967Z,100134.42
2018-07-19T13:22:38.296Z,100135.94
2018-07-19T13:25:08.116Z,100133.86
2018-07-19T13:27:38.185Z,100131.22
2018-07-19T13:30:07.964Z,100134.72
2018-07-19T13:32:38.443Z,100127.00
2018-07-19T13:35:08.597Z,100129.13
2018-07-19T13:37:38.776Z,100136.59
2018-07-19T13:40:08.741Z,100126.89
2018-07-19T13:42:38.846Z,100136.23
2018-07-19T13:45:09.244Z,100133.81
2018-07-19T13:47:39.353Z,100140.70
2018-07-19T13:50:09.525Z,100136.25
2018-07-19T13:52:50.730Z,100142.19
2018-07-19T13:55:20.825Z,100133.41
2018-07-19T13:57:50.947Z,100137.47
2018-07-19T14:00:20.951Z,100133.83
2018-07-19T14:02:51.648Z,100134.88
2018-07-19T14:05:21.649Z,100137.05
2018-07-19T14:07:51.794Z,100132.57
2018-07-19T14:10:22.002Z,100134.41
2018-07-19T14:12:52.049Z,100132.94
2018-07-19T14:15:22.356Z,100132.54
2018-07-19T14:17:52.509Z,100137.81
2018-07-19T14:20:22.485Z,100141.09
2018-07-19T14:22:53.793Z,100141.45
2018-07-19T14:25:23.799Z,100133.48
2018-07-19T14:27:59.468Z,100133.75
2018-07-19T14:30:29.466Z,100130.17
2018-07-19T14:32:59.385Z,100127.08
2018-07-19T14:35:29.404Z,100131.94
2018-07-19T14:37:59.401Z,100120.72
2018-07-19T14:40:29.393Z,100133.77
2018-07-19T14:42:59.717Z,100130.79
2018-07-19T14:45:29.973Z,100129.03
2018-07-19T14:48:00.234Z,100129.05
2018-07-19T14:50:30.134Z,100132.78
2018-07-19T14:53:00.485Z,100137.97
2018-07-19T14:55:30.398Z,100126.86
2018-07-19T14:58:00.565Z,100135.22
2018-07-19T15:00:30.560Z,100133.64
2018-07-19T15:03:00.528Z,100149.09
2018-07-19T15:05:30.727Z,100138.09
2018-07-19T15:08:00.725Z,100143.07
2018-07-19T15:10:30.785Z,100141.14
2018-07-19T15:13:00.653Z,100150.81
2018-07-19T15:15:30.578Z,100140.97
2018-07-19T15:18:00.644Z,100143.45
2018-07-19T15:20:30.663Z,100147.89
2018-07-19T15:23:00.536Z,100158.00
2018-07-19T15:25:30.613Z,100152.21
2018-07-19T15:28:00.713Z,100163.64
2018-07-19T15:30:30.453Z,100176.95
2018-07-19T15:33:01.042Z,100169.54
2018-07-19T15:35:31.036Z,100159.36
2018-07-19T15:38:01.370Z,100161.28
2018-07-19T15:40:31.281Z,100168.80
2018-07-19T15:43:01.171Z,100166.20
2018-07-19T15:45:31.038Z,100169.15
2018-07-19T15:48:00.930Z,100171.61
2018-07-19T15:50:30.732Z,100160.56
2018-07-19T15:53:00.797Z,100161.25
2018-07-19T15:55:30.757Z,100152.72
2018-07-19T15:58:00.707Z,100158.77
2018-07-19T16:00:30.633Z,100159.05
2018-07-19T16:03:01.033Z,100154.28
2018-07-19T16:05:31.184Z,100159.61
2018-07-19T16:08:01.395Z,100170.34
2018-07-19T16:10:31.805Z,100162.83
2018-07-19T16:13:02.068Z,100165.16
2018-07-19T16:15:32.274Z,100165.67
2018-07-19T16:18:02.217Z,100167.23
2018-07-19T16:20:32.682Z,100174.27
2018-07-19T16:23:03.281Z,100180.00
2018-07-19T16:25:33.485Z,100187.13
2018-07-19T16:28:03.381Z,100195.92
2018-07-19T16:30:33.137Z,100198.66
2018-07-19T16:33:02.986Z,100205.40
2018-07-19T16:35:34.142Z,100206.98
2018-07-19T16:38:04.455Z,100203.44
2018-07-19T16:40:34.591Z,100206.87
2018-07-19T16:43:04.701Z,100211.05
2018-07-19T16:45:34.529Z,100217.22
2018-07-19T16:48:04.564Z,100212.33
2018-07-19T16:50:34.550Z,100221.93
2018-07-19T16:53:04.456Z,100225.39
2018-07-19T16:55:34.558Z,100222.77
2018-07-19T16:58:04.373Z,100230.29
2018-07-19T17:00:35.531Z,100227.77
2018-07-19T17:03:05.675Z,100224.29
2018-07-19T17:05:35.611Z,100227.37
2018-07-19T17:08:05.624Z,100224.71
2018-07-19T17:10:35.545Z,100232.54
2018-07-19T17:13:05.740Z,100221.84
2018-07-19T17:15:35.676Z,100225.43
2018-07-19T17:18:05.865Z,100228.86
2018-07-19T17:20:35.880Z,100228.55
2018-07-19T17:23:06.246Z,100222.91
2018-07-19T17:25:36.243Z,100225.98
2018-07-19T17:28:06.235Z,100219.77
2018-07-19T17:30:36.229Z,100217.03
2018-07-19T17:33:06.284Z,100215.13
2018-07-19T17:35:36.520Z,100225.40
2018-07-19T17:38:07.165Z,100228.58
2018-07-19T17:40:37.215Z,100220.17
2018-07-19T17:43:07.441Z,100224.05
2018-07-19T17:45:37.486Z,100238.87
2018-07-19T17:48:07.616Z,100227.72
2018-07-19T17:50:37.814Z,100230.25
2018-07-19T17:53:07.843Z,100229.32
2018-07-19T17:55:37.892Z,100232.27
2018-07-19T17:58:07.985Z,100237.37
2018-07-19T18:00:37.905Z,100234.66
2018-07-19T18:03:09.194Z,100232.34
2018-07-19T18:05:39.035Z,100239.56
2018-07-19T18:08:09.592Z,100230.98
2018-07-19T18:10:39.599Z,100222.92
2018-07-19T18:13:09.715Z,100234.39
2018-07-19T18:15:39.672Z,100238.23
2018-07-19T18:18:09.903Z,100233.55
2018-07-19T18:20:39.882Z,100237.13
2018-07-19T18:23:10.454Z,100239.22
2018-07-19T18:25:40.394Z,100239.60
2018-07-19T18:28:10.743Z,100237.48
2018-07-19T18:30:40.647Z,100248.42
2018-07-19T18:33:10.686Z,100245.66
2018-07-19T18:35:40.556Z,100248.38
2018-07-19T18:38:10.872Z,100247.53
2018-07-19T18:40:40.825Z,100252.02
2018-07-19T18:43:11.108Z,100250.97
2018-07-19T18:45:41.053Z,100254.75
2018-07-19T18:48:11.168Z,100254.81
2018-07-19T18:50:41.099Z,100258.22
2018-07-19T18:53:11.118Z,100264.86
2018-07-19T18:55:40.953Z,100264.67
2018-07-19T18:58:10.861Z,100263.20
2018-07-19T19:00:40.924Z,100265.34
2018-07-19T19:03:11.239Z,100261.62
2018-07-19T19:05:41.471Z,100264.41
2018-07-19T19:08:11.572Z,100265.39
2018-07-19T19:10:41.855Z,100262.95
2018-07-19T19:13:11.801Z,100274.92
2018-07-19T19:15:41.878Z,100266.48
2018-07-19T19:18:11.726Z,100272.58
2018-07-19T19:20:41.893Z,100279.42
2018-07-19T19:23:11.828Z,100280.66
2018-07-19T19:25:41.977Z,100269.84
2018-07-19T19:28:12.911Z,100273.80
2018-07-19T19:30:43.096Z,100277.52
2018-07-19T19:33:13.487Z,100273.95
2018-07-19T19:35:43.463Z,100279.47
2018-07-19T19:38:13.638Z,100284.02
2018-07-19T19:40:43.484Z,100287.52
2018-07-19T19:43:13.555Z,100289.75
2018-07-19T19:45:43.509Z,100289.52
2018-07-19T19:48:14.676Z,100293.54
2018-07-19T19:50:44.548Z,100296.15
2018-07-19T19:53:14.495Z,100299.94
2018-07-19T19:55:44.391Z,100301.13
2018-07-19T19:58:14.756Z,100306.62
2018-07-19T20:00:44.760Z,100298.41
2018-07-19T20:03:15.022Z,100304.52
2018-07-19T20:05:45.951Z,100306.50
2018-07-19T20:08:15.899Z,100306.64
2018-07-19T20:10:46.844Z,100302.62
2018-07-19T20:13:16.801Z,100297.72
2018-07-19T20:15:46.772Z,100298.61
2018-07-19T20:18:16.651Z,100299.54
2018-07-19T20:20:46.684Z,100300.87
2018-07-19T20:23:16.821Z,100299.64
2018-07-19T20:25:46.856Z,100303.97
2018-07-19T20:28:16.875Z,100301.27
2018-07-19T20:30:47.068Z,100303.48
2018-07-19T20:33:16.952Z,100300.58
2018-07-19T20:35:46.802Z,100306.04
2018-07-19T20:38:16.809Z,100311.06
2018-07-19T20:40:47.061Z,100308.95
2018-07-19T20:43:17.016Z,100306.73
2018-07-19T20:45:47.061Z,100305.80
2018-07-19T20:48:17.139Z,100305.94
2018-07-19T20:50:47.090Z,100306.04
2018-07-19T20:53:16.963Z,100309.88
2018-07-19T20:55:46.855Z,100310.63
2018-07-19T20:58:16.950Z,100314.91
2018-07-19T21:00:46.987Z,100317.81
2018-07-19T21:03:17.310Z,100315.06
2018-07-19T21:05:47.325Z,100317.48
2018-07-19T21:08:17.350Z,100318.66
2018-07-19T21:10:47.206Z,100321.86
2018-07-19T21:13:17.400Z,100327.33
2018-07-19T21:15:47.337Z,100324.77
2018-07-19T21:18:17.389Z,100320.67
2018-07-19T21:20:47.300Z,100322.35
2018-07-19T21:23:17.953Z,100315.91
2018-07-19T21:25:48.362Z,100317.67
2018-07-19T21:28:18.604Z,100309.00
2018-07-19T21:30:48.492Z,100309.74
2018-07-19T21:33:18.773Z,100303.74
2018-07-19T21:35:48.703Z,100302.26
2018-07-19T21:38:18.462Z,100301.77
2018-07-19T21:40:48.311Z,100303.00
2018-07-19T21:43:18.804Z,100304.52
2018-07-19T21:45:48.976Z,100306.00
2018-07-19T21:48:19.213Z,100311.47
2018-07-19T21:50:49.015Z,100308.86
2018-07-19T21:53:19.047Z,100308.91
2018-07-19T21:55:48.908Z,100303.55
2018-07-19T21:58:19.088Z,100310.44
2018-07-19T22:00:54.299Z,100304.98
2018-07-19T22:03:24.284Z,100303.94
2018-07-19T22:05:54.241Z,100306.74
2018-07-19T22:08:24.349Z,100310.23
2018-07-19T22:10:54.365Z,100304.53
2018-07-19T22:13:24.368Z,100309.70
2018-07-19T22:15:54.595Z,100300.11
2018-07-19T22:18:25.421Z,100302.16
2018-07-19T22:20:55.347Z,100303.65
2018-07-19T22:23:25.391Z,100299.06
2018-07-19T22:25:55.231Z,100303.44
2018-07-19T22:28:25.199Z,100300.09
2018-07-19T22:30:55.484Z,100301.23
2018-07-19T22:33:25.823Z,100294.58
2018-07-19T22:35:55.703Z,100294.30
2018-07-19T22:38:25.716Z,100296.45
2018-07-19T22:40:55.796Z,100299.52
2018-07-19T22:43:25.752Z,100303.25
2018-07-19T22:45:56.319Z,100301.09
2018-07-19T22:48:26.150Z,100303.64
2018-07-19T22:50:56.133Z,100311.52
2018-07-19T22:53:26.453Z,100310.28
2018-07-19T22:55:56.484Z,100313.48
2018-07-19T22:58:26.633Z,100313.89
2018-07-19T23:00:57.320Z,100310.34
2018-07-19T23:03:27.717Z,100305.36
2018-07-19T23:05:57.698Z,100309.25
2018-07-19T23:08:27.737Z,100311.27
2018-07-19T23:10:58.049Z,100310.23
2018-07-19T23:13:28.113Z,100306.21
2018-07-19T23:15:57.953Z,100303.59
2018-07-19T23:18:27.832Z,100308.27
2018-07-19T23:20:57.679Z,100307.09
2018-07-19T23:23:28.001Z,100311.06
2018-07-19T23:25:58.095Z,100317.33
2018-07-19T23:28:28.496Z,100315.11
2018-07-19T23:30:58.491Z,100311.22
2018-07-19T23:33:28.939Z,100314.70
2018-07-19T23:36:02.585Z,100311.03
2018-07-19T23:38:36.428Z,100313.48
2018-07-19T23:41:10.535Z,100316.10
2018-07-19T23:43:42.600Z,100309.89
2018-07-19T23:46:18.924Z,100310.64
2018-07-19T23:48:49.127Z,100315.70
2018-07-19T23:51:19.164Z,100316.05
2018-07-19T23:53:49.272Z,100315.20
2018-07-19T23:56:19.157Z,100313.73
2018-07-19T23:58:49.004Z,100314.36
